sensor_id;sensor_type;location;lat;lon;timestamp;pressure;altitude;pressure_sealevel;temperature;humidity
29371;BME280;16357;52.188;7.838;2023-02-21T00:01:16;101128.66;;;11.63;68.62
29371;BME280;16357;52.188;7.838;2023-02-21T00:04:01;101123.28;;;11.63;68.44
29371;BME280;16357;52.188;7.838;2023-02-21T00:06:46;101128.66;;;11.63;68.68
29371;BME280;16357;52.188;7.838;2023-02-21T00:09:30;101116.91;;;11.64;68.58
29371;BME280;16357;52.188;7.838;2023-02-21T00:12:15;101113.22;;;11.65;68.46
29371;BME280;16357;52.188;7.838;2023-02-21T00:15:00;101109.69;;;11.64;68.54
29371;BME280;16357;52.188;7.838;2023-02-21T00:17:45;101111.53;;;11.64;68.46
29371;BME280;16357;52.188;7.838;2023-02-21T00:20:30;101111.22;;;11.67;68.60
29371;BME280;16357;52.188;7.838;2023-02-21T00:23:14;101105.84;;;11.67;68.43
29371;BME280;16357;52.188;7.838;2023-02-21T00:25:59;101110.22;;;11.68;68.38
29371;BME280;16357;52.188;7.838;2023-02-21T00:28:44;101110.22;;;11.68;68.47
29371;BME280;16357;52.188;7.838;2023-02-21T00:31:29;101110.06;;;11.70;68.48
29371;BME280;16357;52.188;7.838;2023-02-21T00:34:13;101109.25;;;11.69;68.43
29371;BME280;16357;52.188;7.838;2023-02-21T00:36:58;101105.53;;;11.70;68.46
29371;BME280;16357;52.188;7.838;2023-02-21T00:39:43;101095.81;;;11.69;68.43
29371;BME280;16357;52.188;7.838;2023-02-21T00:42:28;101096.63;;;11.70;68.43
29371;BME280;16357;52.188;7.838;2023-02-21T00:45:13;101099.47;;;11.68;68.48
29371;BME280;16357;52.188;7.838;2023-02-21T00:47:58;101097.63;;;11.69;68.48
29371;BME280;16357;52.188;7.838;2023-02-21T00:50:42;101100.31;;;11.69;68.31
29371;BME280;16357;52.188;7.838;2023-02-21T00:53:28;101103.88;;;11.69;68.40
29371;BME280;16357;52.188;7.838;2023-02-21T00:56:13;101098.50;;;11.69;68.40
29371;BME280;16357;52.188;7.838;2023-02-21T00:58:58;101093.94;;;11.70;68.46
29371;BME280;16357;52.188;7.838;2023-02-21T01:01:42;101095.81;;;11.69;68.35
29371;BME280;16357;52.188;7.838;2023-02-21T01:04:27;101093.13;;;11.69;68.36
29371;BME280;16357;52.188;7.838;2023-02-21T01:07:13;101091.09;;;11.71;68.40
29371;BME280;16357;52.188;7.838;2023-02-21T01:09:57;101094.66;;;11.72;68.40
29371;BME280;16357;52.188;7.838;2023-02-21T01:12:42;101092.78;;;11.72;68.33
29371;BME280;16357;52.188;7.838;2023-02-21T01:15:27;101093.63;;;11.73;68.33
29371;BME280;16357;52.188;7.838;2023-02-21T01:18:12;101093.50;;;11.74;68.27
29371;BME280;16357;52.188;7.838;2023-02-21T01:20:57;101098.00;;;11.74;68.45
29371;BME280;16357;52.188;7.838;2023-02-21T01:23:42;101095.31;;;11.74;68.32
29371;BME280;16357;52.188;7.838;2023-02-21T01:26:27;101101.56;;;11.74;68.17
29371;BME280;16357;52.188;7.838;2023-02-21T01:29:11;101097.03;;;11.75;68.28
29371;BME280;16357;52.188;7.838;2023-02-21T01:31:56;101106.06;;;11.74;68.25
29371;BME280;16357;52.188;7.838;2023-02-21T01:34:41;101094.47;;;11.73;68.41
29371;BME280;16357;52.188;7.838;2023-02-21T01:37:26;101094.47;;;11.73;68.39
29371;BME280;16357;52.188;7.838;2023-02-21T01:40:14;101111.28;;;11.75;68.36
29371;BME280;16357;52.188;7.838;2023-02-21T01:42:59;101098.00;;;11.74;68.37
29371;BME280;16357;52.188;7.838;2023-02-21T01:45:49;101099.53;;;11.76;68.50
29371;BME280;16357;52.188;7.838;2023-02-21T01:48:35;101087.09;;;11.75;68.33
29371;BME280;16357;52.188;7.838;2023-02-21T01:51:26;101085.78;;;11.79;68.41
29371;BME280;16357;52.188;7.838;2023-02-21T01:54:12;101086.66;;;11.80;68.10
29371;BME280;16357;52.188;7.838;2023-02-21T01:56:58;101081.28;;;11.80;68.29
29371;BME280;16357;52.188;7.838;2023-02-21T01:59:44;101084.94;;;11.79;68.27
29371;BME280;16357;52.188;7.838;2023-02-21T02:02:37;101084.09;;;11.78;68.24
29371;BME280;16357;52.188;7.838;2023-02-21T02:05:25;101082.25;;;11.79;68.53
29371;BME280;16357;52.188;7.838;2023-02-21T02:08:12;101077.03;;;11.77;68.35
29371;BME280;16357;52.188;7.838;2023-02-21T02:11:03;101071.19;;;11.82;68.31
29371;BME280;16357;52.188;7.838;2023-02-21T02:14:01;101080.25;;;11.81;68.35
29371;BME280;16357;52.188;7.838;2023-02-21T02:16:42;101081.28;;;11.80;68.25
29371;BME280;16357;52.188;7.838;2023-02-21T02:27:24;101086.78;;;11.78;68.42
29371;BME280;16357;52.188;7.838;2023-02-21T02:35:48;101090.00;;;11.82;68.35
29371;BME280;16357;52.188;7.838;2023-02-21T02:38:30;101084.63;;;11.82;68.49
29371;BME280;16357;52.188;7.838;2023-02-21T02:41:06;101080.13;;;11.82;68.28
29371;BME280;16357;52.188;7.838;2023-02-21T02:44:00;101082.81;;;11.82;68.30
29371;BME280;16357;52.188;7.838;2023-02-21T02:46:29;101088.19;;;11.82;68.44
29371;BME280;16357;52.188;7.838;2023-02-21T02:49:13;101088.19;;;11.82;68.44
29371;BME280;16357;52.188;7.838;2023-02-21T02:51:41;101081.94;;;11.82;68.36
29371;BME280;16357;52.188;7.838;2023-02-21T02:54:08;101085.50;;;11.82;68.40
29371;BME280;16357;52.188;7.838;2023-02-21T02:56:34;101080.13;;;11.82;68.51
29371;BME280;16357;52.188;7.838;2023-02-21T02:59:06;101079.09;;;11.83;68.43
29371;BME280;16357;52.188;7.838;2023-02-21T03:01:48;101074.75;;;11.82;68.87
29371;BME280;16357;52.188;7.838;2023-02-21T03:04:43;101075.41;;;11.84;68.62
29371;BME280;16357;52.188;7.838;2023-02-21T03:07:43;101083.47;;;11.84;68.39
29371;BME280;16357;52.188;7.838;2023-02-21T03:13:16;101089.72;;;11.85;68.52
29371;BME280;16357;52.188;7.838;2023-02-21T03:18:59;101099.59;;;11.84;68.47
29371;BME280;16357;52.188;7.838;2023-02-21T03:21:31;101107.66;;;11.84;68.50
29371;BME280;16357;52.188;7.838;2023-02-21T03:24:01;101102.28;;;11.84;68.55
29371;BME280;16357;52.188;7.838;2023-02-21T03:26:31;101102.28;;;11.84;68.41
29371;BME280;16357;52.188;7.838;2023-02-21T03:28:59;101099.59;;;11.84;68.39
29371;BME280;16357;52.188;7.838;2023-02-21T03:31:29;101100.31;;;11.86;68.55
29371;BME280;16357;52.188;7.838;2023-02-21T03:34:00;101096.81;;;11.86;68.76
29371;BME280;16357;52.188;7.838;2023-02-21T03:36:27;101098.63;;;11.85;68.52
29371;BME280;16357;52.188;7.838;2023-02-21T03:38:53;101094.94;;;11.86;68.43
29371;BME280;16357;52.188;7.838;2023-02-21T03:41:20;101100.31;;;11.86;68.40
29371;BME280;16357;52.188;7.838;2023-02-21T03:43:46;101103.00;;;11.86;68.47
29371;BME280;16357;52.188;7.838;2023-02-21T03:46:12;101093.97;;;11.88;68.62
29371;BME280;16357;52.188;7.838;2023-02-21T03:48:39;101102.03;;;11.88;68.51
29371;BME280;16357;52.188;7.838;2023-02-21T03:51:05;101092.13;;;11.88;68.50
29371;BME280;16357;52.188;7.838;2023-02-21T03:53:32;101100.31;;;11.86;68.49
29371;BME280;16357;52.188;7.838;2023-02-21T03:55:58;101101.16;;;11.87;68.55
29371;BME280;16357;52.188;7.838;2023-02-21T03:58:25;101103.72;;;11.89;68.49
29371;BME280;16357;52.188;7.838;2023-02-21T04:00:51;101113.63;;;11.88;68.46
29371;BME280;16357;52.188;7.838;2023-02-21T04:03:19;101111.78;;;11.89;68.60
29371;BME280;16357;52.188;7.838;2023-02-21T04:05:45;101114.47;;;11.89;68.40
29371;BME280;16357;52.188;7.838;2023-02-21T04:08:12;101112.59;;;11.89;68.52
29371;BME280;16357;52.188;7.838;2023-02-21T04:10:38;101122.38;;;11.90;68.51
29371;BME280;16357;52.188;7.838;2023-02-21T04:13:17;101119.53;;;11.92;68.47
29371;BME280;16357;52.188;7.838;2023-02-21T04:15:45;101117.66;;;11.92;68.34
29371;BME280;16357;52.188;7.838;2023-02-21T04:18:11;101115.81;;;11.93;68.53
29371;BME280;16357;52.188;7.838;2023-02-21T04:20:37;101121.88;;;11.95;68.31
29371;BME280;16357;52.188;7.838;2023-02-21T04:23:04;101104.91;;;11.94;68.47
29371;BME280;16357;52.188;7.838;2023-02-21T04:25:30;101118.38;;;11.94;68.33
29371;BME280;16357;52.188;7.838;2023-02-21T04:27:57;101120.22;;;11.94;68.24
29371;BME280;16357;52.188;7.838;2023-02-21T04:30:23;101132.81;;;11.93;68.33
29371;BME280;16357;52.188;7.838;2023-02-21T04:32:50;101127.44;;;11.93;68.22
29371;BME280;16357;52.188;7.838;2023-02-21T04:35:16;101130.28;;;11.92;68.46
29371;BME280;16357;52.188;7.838;2023-02-21T04:37:43;101128.44;;;11.92;68.41
29371;BME280;16357;52.188;7.838;2023-02-21T04:40:10;101124.06;;;11.91;68.54
29371;BME280;16357;52.188;7.838;2023-02-21T04:42:37;101124.06;;;11.91;68.45
29371;BME280;16357;52.188;7.838;2023-02-21T04:45:03;101132.13;;;11.91;68.46
29371;BME280;16357;52.188;7.838;2023-02-21T04:47:30;101128.59;;;11.91;68.40
29371;BME280;16357;52.188;7.838;2023-02-21T04:49:56;101114.47;;;11.89;68.45
29371;BME280;16357;52.188;7.838;2023-02-21T04:52:23;101117.16;;;11.89;68.55
29371;BME280;16357;52.188;7.838;2023-02-21T04:54:50;101114.47;;;11.89;68.44
29371;BME280;16357;52.188;7.838;2023-02-21T04:57:16;101109.91;;;11.89;68.52
29371;BME280;16357;52.188;7.838;2023-02-21T04:59:43;101109.09;;;11.89;68.52
29371;BME280;16357;52.188;7.838;2023-02-21T05:02:09;101103.72;;;11.89;68.62
29371;BME280;16357;52.188;7.838;2023-02-21T05:04:36;101119.84;;;11.89;68.86
29371;BME280;16357;52.188;7.838;2023-02-21T05:07:03;101116.13;;;11.90;68.75
29371;BME280;16357;52.188;7.838;2023-02-21T05:09:30;101119.84;;;11.89;68.87
29371;BME280;16357;52.188;7.838;2023-02-21T05:11:57;101109.09;;;11.89;68.62
29371;BME280;16357;52.188;7.838;2023-02-21T05:14:23;101112.59;;;11.89;68.66
29371;BME280;16357;52.188;7.838;2023-02-21T05:16:50;101108.25;;;11.88;68.60
29371;BME280;16357;52.188;7.838;2023-02-21T05:19:18;101102.88;;;11.88;68.59
29371;BME280;16357;52.188;7.838;2023-02-21T05:21:56;101107.09;;;11.91;68.50
29371;BME280;16357;52.188;7.838;2023-02-21T05:24:24;101102.69;;;11.90;68.39
29371;BME280;16357;52.188;7.838;2023-02-21T05:26:51;101098.34;;;11.89;68.59
29371;BME280;16357;52.188;7.838;2023-02-21T05:29:18;101095.63;;;11.89;68.58
29371;BME280;16357;52.188;7.838;2023-02-21T05:31:45;101089.56;;;11.86;68.47
29371;BME280;16357;52.188;7.838;2023-02-21T05:34:13;101094.94;;;11.86;68.51
29371;BME280;16357;52.188;7.838;2023-02-21T05:36:39;101096.91;;;11.84;68.43
29371;BME280;16357;52.188;7.838;2023-02-21T05:39:07;101083.63;;;11.83;68.48
29371;BME280;16357;52.188;7.838;2023-02-21T05:41:33;101084.63;;;11.82;68.54
29371;BME280;16357;52.188;7.838;2023-02-21T05:44:01;101097.41;;;11.80;68.65
29371;BME280;16357;52.188;7.838;2023-02-21T05:46:31;101089.47;;;11.78;68.63
29371;BME280;16357;52.188;7.838;2023-02-21T05:48:59;101097.69;;;11.77;68.98
29371;BME280;16357;52.188;7.838;2023-02-21T05:51:27;101093.50;;;11.74;68.73
29371;BME280;16357;52.188;7.838;2023-02-21T05:53:58;101096.19;;;11.74;68.70
29371;BME280;16357;52.188;7.838;2023-02-21T05:56:25;101092.78;;;11.72;68.82
29371;BME280;16357;52.188;7.838;2023-02-21T05:58:51;101086.59;;;11.72;69.09
29371;BME280;16357;52.188;7.838;2023-02-21T06:01:18;101092.09;;;11.70;68.95
29371;BME280;16357;52.188;7.838;2023-02-21T06:03:45;101084.19;;;11.69;69.10
29371;BME280;16357;52.188;7.838;2023-02-21T06:06:14;101089.56;;;11.69;69.09
29371;BME280;16357;52.188;7.838;2023-02-21T06:08:50;101092.25;;;11.69;68.95
29371;BME280;16357;52.188;7.838;2023-02-21T06:11:25;101086.03;;;11.68;69.07
29371;BME280;16357;52.188;7.838;2023-02-21T06:13:54;101089.72;;;11.67;69.12
29371;BME280;16357;52.188;7.838;2023-02-21T06:16:22;101096.94;;;11.67;69.10
29371;BME280;16357;52.188;7.838;2023-02-21T06:18:50;101094.25;;;11.67;68.93
29371;BME280;16357;52.188;7.838;2023-02-21T06:21:17;101083.50;;;11.67;69.24
29371;BME280;16357;52.188;7.838;2023-02-21T06:23:44;101092.56;;;11.65;69.24
29371;BME280;16357;52.188;7.838;2023-02-21T06:26:11;101093.41;;;11.66;69.14
29371;BME280;16357;52.188;7.838;2023-02-21T06:28:37;101091.72;;;11.65;69.21
29371;BME280;16357;52.188;7.838;2023-02-21T06:31:04;101099.78;;;11.65;69.42
29371;BME280;16357;52.188;7.838;2023-02-21T06:33:31;101090.72;;;11.66;69.47
29371;BME280;16357;52.188;7.838;2023-02-21T06:36:03;101094.25;;;11.67;69.45
29371;BME280;16357;52.188;7.838;2023-02-21T06:38:39;101101.31;;;11.68;69.28
29371;BME280;16357;52.188;7.838;2023-02-21T06:41:52;101095.09;;;11.67;69.46
29371;BME280;16357;52.188;7.838;2023-02-21T06:44:19;101089.72;;;11.67;69.29
29371;BME280;16357;52.188;7.838;2023-02-21T06:46:47;101093.25;;;11.68;69.29
29371;BME280;16357;52.188;7.838;2023-02-21T06:49:15;101093.41;;;11.66;69.64
29371;BME280;16357;52.188;7.838;2023-02-21T06:51:42;101089.03;;;11.65;69.37
29371;BME280;16357;52.188;7.838;2023-02-21T06:54:09;101091.72;;;11.65;69.54
29371;BME280;16357;52.188;7.838;2023-02-21T06:56:35;101102.59;;;11.63;69.65
29371;BME280;16357;52.188;7.838;2023-02-21T06:59:02;101097.22;;;11.63;69.69
29371;BME280;16357;52.188;7.838;2023-02-21T07:01:29;101109.00;;;11.62;69.84
29371;BME280;16357;52.188;7.838;2023-02-21T07:03:57;101104.47;;;11.63;69.91
29371;BME280;16357;52.188;7.838;2023-02-21T07:06:24;101100.09;;;11.62;69.80
29371;BME280;16357;52.188;7.838;2023-02-21T07:08:52;101094.72;;;11.62;69.71
29371;BME280;16357;52.188;7.838;2023-02-21T07:11:18;101098.25;;;11.62;69.82
29371;BME280;16357;52.188;7.838;2023-02-21T07:13:49;101107.16;;;11.63;69.71
29371;BME280;16357;52.188;7.838;2023-02-21T07:16:17;101103.63;;;11.62;69.46
29371;BME280;16357;52.188;7.838;2023-02-21T07:18:44;101108.16;;;11.62;69.76
29371;BME280;16357;52.188;7.838;2023-02-21T07:21:11;101104.63;;;11.61;69.75
29371;BME280;16357;52.188;7.838;2023-02-21T07:23:39;101110.97;;;11.60;69.65
29371;BME280;16357;52.188;7.838;2023-02-21T07:26:05;101113.84;;;11.59;69.64
29371;BME280;16357;52.188;7.838;2023-02-21T07:28:31;101108.47;;;11.59;69.76
29371;BME280;16357;52.188;7.838;2023-02-21T07:30:58;101110.47;;;11.57;69.88
29371;BME280;16357;52.188;7.838;2023-02-21T07:33:24;101112.13;;;11.58;69.84
29371;BME280;16357;52.188;7.838;2023-02-21T07:35:50;101119.22;;;11.59;69.91
29371;BME280;16357;52.188;7.838;2023-02-21T07:38:25;101115.66;;;11.58;70.03
29371;BME280;16357;52.188;7.838;2023-02-21T07:40:57;101125.44;;;11.59;69.94
29371;BME280;16357;52.188;7.838;2023-02-21T07:43:27;101137.03;;;11.60;70.06
29371;BME280;16357;52.188;7.838;2023-02-21T07:45:55;101133.31;;;11.61;70.04
29371;BME280;16357;52.188;7.838;2023-02-21T07:48:22;101135.16;;;11.60;70.25
29371;BME280;16357;52.188;7.838;2023-02-21T07:50:48;101132.34;;;11.62;70.18
29371;BME280;16357;52.188;7.838;2023-02-21T07:53:15;101132.34;;;11.62;70.14
29371;BME280;16357;52.188;7.838;2023-02-21T07:55:42;101131.34;;;11.63;70.13
29371;BME280;16357;52.188;7.838;2023-02-21T07:58:08;101132.16;;;11.63;70.15
29371;BME280;16357;52.188;7.838;2023-02-21T08:00:35;101144.63;;;11.64;70.22
29371;BME280;16357;52.188;7.838;2023-02-21T08:03:05;101137.41;;;11.65;70.33
29371;BME280;16357;52.188;7.838;2023-02-21T08:05:32;101140.94;;;11.65;70.18
29371;BME280;16357;52.188;7.838;2023-02-21T08:07:58;101137.25;;;11.67;70.26
29371;BME280;16357;52.188;7.838;2023-02-21T08:10:26;101133.72;;;11.66;70.16
29371;BME280;16357;52.188;7.838;2023-02-21T08:12:52;101138.09;;;11.67;70.12
29371;BME280;16357;52.188;7.838;2023-02-21T08:15:19;101140.78;;;11.67;70.33
29371;BME280;16357;52.188;7.838;2023-02-21T08:17:49;101137.78;;;11.70;70.11
29371;BME280;16357;52.188;7.838;2023-02-21T08:20:16;101142.31;;;11.70;70.32
29371;BME280;16357;52.188;7.838;2023-02-21T08:22:42;101137.78;;;11.70;70.36
29371;BME280;16357;52.188;7.838;2023-02-21T08:25:13;101141.19;;;11.72;70.27
29371;BME280;16357;52.188;7.838;2023-02-21T08:27:43;101147.25;;;11.74;70.71
29371;BME280;16357;52.188;7.838;2023-02-21T08:30:13;101147.91;;;11.76;70.32
29371;BME280;16357;52.188;7.838;2023-02-21T08:32:40;101144.25;;;11.77;70.43
29371;BME280;16357;52.188;7.838;2023-02-21T08:35:06;101155.66;;;11.79;70.25
29371;BME280;16357;52.188;7.838;2023-02-21T08:37:33;101151.00;;;11.81;70.34
29371;BME280;16357;52.188;7.838;2023-02-21T08:40:02;101149.00;;;11.83;70.23
29371;BME280;16357;52.188;7.838;2023-02-21T08:42:29;101151.69;;;11.83;70.17
29371;BME280;16357;52.188;7.838;2023-02-21T08:44:55;101151.53;;;11.85;70.26
29371;BME280;16357;52.188;7.838;2023-02-21T08:47:22;101155.06;;;11.85;70.24
29371;BME280;16357;52.188;7.838;2023-02-21T08:49:49;101156.78;;;11.86;70.13
29371;BME280;16357;52.188;7.838;2023-02-21T08:52:16;101166.56;;;11.88;70.22
29371;BME280;16357;52.188;7.838;2023-02-21T08:54:44;101163.69;;;11.89;70.09
29371;BME280;16357;52.188;7.838;2023-02-21T08:57:10;101160.84;;;11.91;70.17
29371;BME280;16357;52.188;7.838;2023-02-21T08:59:43;101162.53;;;11.92;70.07
29371;BME280;16357;52.188;7.838;2023-02-21T09:02:18;101164.22;;;11.93;70.06
29371;BME280;16357;52.188;7.838;2023-02-21T09:04:45;101164.06;;;11.94;70.08
29371;BME280;16357;52.188;7.838;2023-02-21T09:07:16;101163.94;;;11.96;69.93
29371;BME280;16357;52.188;7.838;2023-02-21T09:09:44;101162.91;;;11.97;69.93
29371;BME280;16357;52.188;7.838;2023-02-21T09:12:10;101160.22;;;11.97;69.79
29371;BME280;16357;52.188;7.838;2023-02-21T09:14:38;101148.47;;;11.98;69.85
29371;BME280;16357;52.188;7.838;2023-02-21T09:17:06;101164.59;;;11.98;69.75
29371;BME280;16357;52.188;7.838;2023-02-21T09:19:33;101154.72;;;11.98;70.04
29371;BME280;16357;52.188;7.838;2023-02-21T09:22:00;101160.09;;;11.98;69.82
29371;BME280;16357;52.188;7.838;2023-02-21T09:24:28;101148.31;;;11.99;69.82
29371;BME280;16357;52.188;7.838;2023-02-21T09:26:55;101149.16;;;12.00;69.71
29371;BME280;16357;52.188;7.838;2023-02-21T09:29:25;101154.22;;;12.03;69.79
29371;BME280;16357;52.188;7.838;2023-02-21T09:32:03;101147.16;;;12.02;69.73
29371;BME280;16357;52.188;7.838;2023-02-21T09:34:29;101148.84;;;12.03;69.73
29371;BME280;16357;52.188;7.838;2023-02-21T09:36:56;101143.31;;;12.04;69.74
29371;BME280;16357;52.188;7.838;2023-02-21T09:39:23;101140.63;;;12.04;69.48
29371;BME280;16357;52.188;7.838;2023-02-21T09:41:50;101141.47;;;12.05;69.70
29371;BME280;16357;52.188;7.838;2023-02-21T09:44:21;101150.22;;;12.07;69.69
29371;BME280;16357;52.188;7.838;2023-02-21T09:46:53;101144.72;;;12.08;69.72
29371;BME280;16357;52.188;7.838;2023-02-21T09:49:31;101145.38;;;12.11;69.46
29371;BME280;16357;52.188;7.838;2023-02-21T09:51:59;101149.06;;;12.10;69.33
29371;BME280;16357;52.188;7.838;2023-02-21T09:54:34;101161.38;;;12.12;69.46
29371;BME280;16357;52.188;7.838;2023-02-21T09:57:04;101150.44;;;12.14;69.42
29371;BME280;16357;52.188;7.838;2023-02-21T09:59:31;101154.00;;;12.14;69.47
29371;BME280;16357;52.188;7.838;2023-02-21T10:04:59;101151.81;;;12.18;69.31
29371;BME280;16357;52.188;7.838;2023-02-21T10:07:58;101149.66;;;12.21;69.38
29371;BME280;16357;52.188;7.838;2023-02-21T10:10:49;101150.34;;;12.23;69.36
29371;BME280;16357;52.188;7.838;2023-02-21T10:16:17;101157.13;;;12.27;69.21
29371;BME280;16357;52.188;7.838;2023-02-21T10:19:11;101164.16;;;12.28;69.26
29371;BME280;16357;52.188;7.838;2023-02-21T10:21:43;101154.09;;;12.30;69.16
29371;BME280;16357;52.188;7.838;2023-02-21T10:24:22;101162.88;;;12.33;69.33
29371;BME280;16357;52.188;7.838;2023-02-21T10:26:58;101166.22;;;12.35;69.13
29371;BME280;16357;52.188;7.838;2023-02-21T10:32:12;101160.56;;;12.38;68.88
29371;BME280;16357;52.188;7.838;2023-02-21T10:34:39;101171.13;;;12.39;68.74
29371;BME280;16357;52.188;7.838;2023-02-21T10:37:27;101171.97;;;12.40;68.57
29371;BME280;16357;52.188;7.838;2023-02-21T10:40:05;101166.59;;;12.40;68.37
29371;BME280;16357;52.188;7.838;2023-02-21T10:42:49;101174.53;;;12.41;68.55
29371;BME280;16357;52.188;7.838;2023-02-21T10:45:23;101174.66;;;12.40;68.44
29371;BME280;16357;52.188;7.838;2023-02-21T10:48:02;101173.69;;;12.41;68.37
29371;BME280;16357;52.188;7.838;2023-02-21T10:50:49;101177.53;;;12.38;68.44
29371;BME280;16357;52.188;7.838;2023-02-21T10:53:24;101180.38;;;12.37;68.31
29371;BME280;16357;52.188;7.838;2023-02-21T10:58:32;101181.72;;;12.33;68.55
29371;BME280;16357;52.188;7.838;2023-02-21T11:03:49;101173.63;;;12.33;68.61
29371;BME280;16357;52.188;7.838;2023-02-21T11:06:36;101179.00;;;12.33;68.75
29371;BME280;16357;52.188;7.838;2023-02-21T11:11:59;101174.28;;;12.35;68.56
29371;BME280;16357;52.188;7.838;2023-02-21T11:14:28;101169.94;;;12.34;68.57
29371;BME280;16357;52.188;7.838;2023-02-21T11:17:12;101159.84;;;12.36;68.69
29371;BME280;16357;52.188;7.838;2023-02-21T11:27:58;101171.59;;;12.35;68.62
29371;BME280;16357;52.188;7.838;2023-02-21T11:30:26;101162.69;;;12.34;68.44
29371;BME280;16357;52.188;7.838;2023-02-21T11:32:55;101168.78;;;12.36;68.52
29371;BME280;16357;52.188;7.838;2023-02-21T11:35:30;101159.03;;;12.35;68.52
29371;BME280;16357;52.188;7.838;2023-02-21T11:38:03;101157.00;;;12.37;68.48
29371;BME280;16357;52.188;7.838;2023-02-21T11:43:18;101149.78;;;12.38;68.27
29371;BME280;16357;52.188;7.838;2023-02-21T11:48:46;101148.78;;;12.39;68.29
29371;BME280;16357;52.188;7.838;2023-02-21T11:51:24;101147.94;;;12.38;68.56
29371;BME280;16357;52.188;7.838;2023-02-21T11:53:52;101148.78;;;12.39;68.34
29371;BME280;16357;52.188;7.838;2023-02-21T11:56:29;101136.00;;;12.41;68.51
29371;BME280;16357;52.188;7.838;2023-02-21T12:07:24;101135.06;;;12.50;68.22
29371;BME280;16357;52.188;7.838;2023-02-21T12:13:30;101138.09;;;12.55;68.36
29371;BME280;16357;52.188;7.838;2023-02-21T12:16:01;101133.41;;;12.57;67.94
29371;BME280;16357;52.188;7.838;2023-02-21T12:18:58;101130.72;;;12.57;68.01
29371;BME280;16357;52.188;7.838;2023-02-21T12:24:17;101126.88;;;12.60;67.74
29371;BME280;16357;52.188;7.838;2023-02-21T12:27:14;101120.47;;;12.61;67.77
29371;BME280;16357;52.188;7.838;2023-02-21T12:32:59;101116.09;;;12.60;67.73
29371;BME280;16357;52.188;7.838;2023-02-21T12:35:38;101118.09;;;12.58;67.85
29371;BME280;16357;52.188;7.838;2023-02-21T12:48:55;101113.75;;;12.57;67.46
29371;BME280;16357;52.188;7.838;2023-02-21T12:51:30;101111.03;;;12.57;67.64
29371;BME280;16357;52.188;7.838;2023-02-21T12:54:03;101115.59;;;12.56;67.80
29371;BME280;16357;52.188;7.838;2023-02-21T12:56:43;101114.72;;;12.56;67.45
29371;BME280;16357;52.188;7.838;2023-02-21T12:59:12;101106.81;;;12.54;67.52
29371;BME280;16357;52.188;7.838;2023-02-21T13:01:45;101110.34;;;12.55;67.54
29371;BME280;16357;52.188;7.838;2023-02-21T13:07:03;101107.81;;;12.53;67.63
29371;BME280;16357;52.188;7.838;2023-02-21T13:09:39;101108.69;;;12.54;67.61
29371;BME280;16357;52.188;7.838;2023-02-21T13:15:22;101106.13;;;12.52;67.73
29371;BME280;16357;52.188;7.838;2023-02-21T13:18:05;101098.22;;;12.50;67.91
29371;BME280;16357;52.188;7.838;2023-02-21T13:20:46;101097.38;;;12.50;67.69
29371;BME280;16357;52.188;7.838;2023-02-21T13:26:42;101086.59;;;12.50;67.59
29371;BME280;16357;52.188;7.838;2023-02-21T13:29:33;101083.91;;;12.50;67.67
29371;BME280;16357;52.188;7.838;2023-02-21T13:32:09;101084.94;;;12.49;67.58
29371;BME280;16357;52.188;7.838;2023-02-21T13:34:39;101087.78;;;12.47;67.63
29371;BME280;16357;52.188;7.838;2023-02-21T13:37:16;101086.94;;;12.47;67.62
29371;BME280;16357;52.188;7.838;2023-02-21T13:39:48;101078.16;;;12.45;67.25
29371;BME280;16357;52.188;7.838;2023-02-21T13:42:20;101081.41;;;12.48;67.60
29371;BME280;16357;52.188;7.838;2023-02-21T13:44:50;101074.66;;;12.44;66.87
29371;BME280;16357;52.188;7.838;2023-02-21T13:47:21;101085.03;;;12.39;67.02
29371;BME280;16357;52.188;7.838;2023-02-21T13:49:55;101075.44;;;12.37;66.98
29371;BME280;16357;52.188;7.838;2023-02-21T13:52:33;101082.16;;;12.33;67.21
29371;BME280;16357;52.188;7.838;2023-02-21T14:08:15;101071.66;;;12.21;67.51
29371;BME280;16357;52.188;7.838;2023-02-21T14:13:35;101072.81;;;12.19;67.64
29371;BME280;16357;52.188;7.838;2023-02-21T14:21:39;101067.59;;;12.17;67.81
29371;BME280;16357;52.188;7.838;2023-02-21T14:26:40;101069.13;;;12.20;67.87
29371;BME280;16357;52.188;7.838;2023-02-21T14:37:02;101063.56;;;12.21;67.77
29371;BME280;16357;52.188;7.838;2023-02-21T14:39:35;101067.97;;;12.22;67.74
29371;BME280;16357;52.188;7.838;2023-02-21T14:42:30;101062.59;;;12.22;67.70
29371;BME280;16357;52.188;7.838;2023-02-21T14:48:00;101058.56;;;12.26;67.77
29371;BME280;16357;52.188;7.838;2023-02-21T14:56:06;101050.50;;;12.26;67.85
29371;BME280;16357;52.188;7.838;2023-02-21T15:04:41;101057.94;;;12.33;68.07
29371;BME280;16357;52.188;7.838;2023-02-21T15:07:30;101055.91;;;12.35;67.58
29371;BME280;16357;52.188;7.838;2023-02-21T15:13:34;101053.09;;;12.36;67.70
29371;BME280;16357;52.188;7.838;2023-02-21T15:15:38;101057.28;;;12.39;67.52
29371;BME280;16357;52.188;7.838;2023-02-21T15:20:37;101052.94;;;12.38;67.79
29371;BME280;16357;52.188;7.838;2023-02-21T15:23:14;101056.28;;;12.40;67.71
29371;BME280;16357;52.188;7.838;2023-02-21T15:25:42;101058.97;;;12.40;67.71
29371;BME280;16357;52.188;7.838;2023-02-21T15:28:27;101051.78;;;12.40;67.93
29371;BME280;16357;52.188;7.838;2023-02-21T15:31:07;101064.06;;;12.43;67.78
29371;BME280;16357;52.188;7.838;2023-02-21T15:33:42;101067.41;;;12.45;67.90
29371;BME280;16357;52.188;7.838;2023-02-21T15:36:22;101065.41;;;12.47;67.52
29371;BME280;16357;52.188;7.838;2023-02-21T15:38:53;101068.09;;;12.47;67.51
29371;BME280;16357;52.188;7.838;2023-02-21T15:41:46;101063.56;;;12.47;67.55
29371;BME280;16357;52.188;7.838;2023-02-21T15:44:20;101060.03;;;12.47;67.58